Latest Weather Observations for Daly Waters

IDD60801

Issued at 2:01 pm CST Tuesday 23 December 2014 (issued every 30 minutes, with the page automatically refreshed every 10 minutes)

About weather observations | Map of weather stations | Latest weather observations for NT | Other Formats
Station Details ID: 014626 Name: DALY WATERS AIRSTRIP Lat: -16.26 Lon: 133.38 Height: 209.84 m
Data from the previous 72 hours. | See also: Recent months at Daly Waters
Date/Time
CST
Temp
°C
App
Temp
°C
Dew
Point
Rel
Hum
%
Delta-T
°C
Wind Press
QNH
hPa
Press
MSL
hPa
Rain
since 9 am
mm
Dir
 
Spd
km/h
Gust
km/h
Spd
kts
Gust
kts
23/02:00pm 32.1 35.3 21.3 53 7.3 E 6 9 3 5 1008.0 1006.4 0.2
23/01:30pm 31.9 34.8 21.1 52 7.3 SE 7 15 4 8 1008.5 1006.9 0.2
23/01:00pm 32.9 36.3 21.7 51 7.7 NW 6 15 3 8 1008.9 1007.2 0.2
23/12:30pm 33.0 36.3 21.5 50 7.8 NNW 6 13 3 7 1009.6 1007.9 0.2
23/12:00pm 31.6 33.9 19.9 50 7.8 NW 7 11 4 6 1010.2 1008.5 0.2
23/11:30am 31.1 34.5 21.0 55 6.8 S 4 9 2 5 1010.8 1009.2 0.2
23/11:00am 29.9 33.2 20.7 57 6.2 S 4 9 2 5 1011.3 1009.7 0.2
23/10:30am 29.3 33.0 21.5 63 5.3 SSW 4 9 2 5 1011.6 1010.0 0.2
23/10:00am 29.1 32.8 22.3 66 4.6 SW 6 7 3 4 1011.6 1010.0 0.2
23/09:30am 28.4 31.9 21.9 68 4.4 SW 6 9 3 5 1011.3 1009.7 0.0
23/09:00am 28.0 32.3 22.7 73 3.6 WNW 4 9 2 5 1011.0 1009.4 30.0
23/08:30am 27.7 31.6 22.6 74 3.5 WNW 6 7 3 4 1010.8 1009.2 30.0
23/08:00am 26.4 31.0 22.5 79 2.6 NNW 2 4 1 2 1010.4 1008.7 30.0
23/07:30am 25.9 29.8 22.6 82 2.2 NNW 6 7 3 4 1010.4 1008.7 30.0
23/07:00am 25.6 29.6 22.7 84 2.0 N 6 9 3 5 1010.4 1008.7 30.0
23/06:30am 25.3 29.8 23.0 87 1.6 N 4 6 2 3 1010.3 1008.6 30.0
23/06:00am 25.3 30.6 23.0 87 1.6 CALM 0 0 0 0 1010.0 1008.3 30.0
23/05:30am 25.5 29.9 22.8 85 1.8 ENE 4 6 2 3 1009.8 1008.1 30.0
23/05:00am 25.6 29.9 22.7 84 2.0 NE 4 6 2 3 1009.7 1008.0 30.0
23/04:30am 25.4 29.2 22.7 85 1.8 W 7 13 4 7 1009.5 1007.8 30.0
23/04:00am 25.2 29.3 22.9 87 1.6 W 6 9 3 5 1009.6 1007.9 30.0
23/03:30am 25.3 29.8 23.0 87 1.6 W 4 6 2 3 1009.5 1007.8 30.0
23/03:00am 25.1 29.7 23.2 89 1.3 NW 4 7 2 4 1009.6 1007.9 30.0
23/02:30am 25.2 29.8 23.1 88 1.4 W 4 6 2 3 1009.3 1007.6 30.0
23/02:00am 25.1 29.6 23.0 88 1.4 NW 4 7 2 4 1009.1 1007.4 30.0
23/01:30am 25.1 29.4 22.6 86 1.7 WNW 4 6 2 3 1009.0 1007.3 30.0
23/01:00am 25.3 30.2 23.0 87 1.6 NNE 2 6 1 3 1008.7 1007.0 30.0
23/12:30am 25.2 29.9 23.3 89 1.3 NE 4 6 2 3 1008.8 1007.1 30.0
23/12:00am 25.2 30.5 23.1 88 1.4 CALM 0 0 0 0 1008.9 1007.2 30.0
 
Date/Time
CST
Temp
°C
App
Temp
°C
Dew
Point
Rel
Hum
%
Delta-T
°C
Wind Press
QNH
hPa
Press
MSL
hPa
Rain
since 9 am
mm
Dir
 
Spd
km/h
Gust
km/h
Spd
kts
Gust
kts
22/11:30pm 25.1 30.0 23.0 88 1.4 SE 2 4 1 2 1009.1 1007.4 30.0
22/11:00pm 25.3 30.7 23.2 88 1.4 CALM 0 0 0 0 1009.6 1007.9 30.0
22/10:30pm 25.3 30.3 23.2 88 1.4 SE 2 4 1 2 1010.0 1008.3 30.0
22/10:00pm 25.4 30.5 23.3 88 1.4 ESE 2 4 1 2 1010.2 1008.5 30.0
22/09:30pm 25.3 30.3 23.2 88 1.4 ENE 2 4 1 2 1010.0 1008.3 30.0
22/09:00pm 25.2 30.3 22.7 86 1.7 CALM 0 0 0 0 1010.0 1008.3 30.0
22/08:30pm 25.2 29.4 23.1 88 1.4 N 6 9 3 5 1010.6 1008.9 30.0
22/08:00pm 25.0 30.2 22.9 88 1.4 CALM 0 2 0 1 1009.1 1007.4 30.0
22/07:30pm 24.9 29.3 22.8 88 1.4 SE 4 7 2 4 1008.7 1007.0 30.0
22/07:00pm 25.0 28.8 22.7 87 1.6 SE 7 19 4 10 1008.5 1006.9 30.0
22/06:30pm 24.9 28.7 22.8 88 1.4 S 7 13 4 7 1007.8 1006.2 29.8
22/06:00pm 24.9 29.4 23.0 89 1.3 E 4 6 2 3 1007.3 1005.7 29.8
22/05:30pm 24.4 27.2 22.3 88 1.4 SSW 11 17 6 9 1007.0 1005.4 29.6
22/05:00pm 24.2 27.3 22.1 88 1.4 SE 9 13 5 7 1007.3 1005.7 25.0
22/04:30pm 26.4 26.9 20.9 72 3.7 E 19 32 10 17 1007.2 1005.6 0.0
22/04:00pm 29.3 30.3 20.2 58 6.0 SE 15 24 8 13 1006.4 1004.7 0.0
22/03:30pm 33.6 36.3 21.4 48 8.3 NW 9 15 5 8 1005.9 1004.2 0.0
22/03:00pm 34.8 36.8 20.7 43 9.6 NNW 11 22 6 12 1006.3 1004.6 0.0
22/02:30pm 35.1 36.8 21.0 43 9.6 NW 13 20 7 11 1006.7 1005.1 0.0
22/02:00pm 34.6 37.4 21.6 46 8.9 N 9 17 5 9 1007.4 1005.8 0.0
22/01:30pm 34.8 37.0 20.4 43 9.7 NE 9 19 5 10 1007.8 1006.2 0.0
22/01:00pm 34.6 36.7 20.9 44 9.3 NE 11 20 6 11 1008.2 1006.6 0.0
22/12:30pm 34.2 36.9 21.3 47 8.8 NNE 9 20 5 11 1008.7 1007.0 0.0
22/12:00pm 33.4 35.5 20.9 48 8.5 NE 11 30 6 16 1009.3 1007.6 0.0
22/11:30am 33.0 34.9 20.5 47 8.4 NE 11 17 6 9 1009.7 1008.0 0.0
22/11:00am 32.1 34.5 21.6 53 7.1 NNE 11 17 6 9 1010.0 1008.3 0.0
22/10:30am 31.6 32.9 20.2 50 7.6 N 13 24 7 13 1010.1 1008.4 0.0
22/10:00am 32.3 34.5 21.2 52 7.5 NE 11 19 6 10 1010.3 1008.6 0.0
22/09:30am 31.1 33.4 20.7 54 7.0 NE 9 15 5 8 1010.4 1008.7 0.0
22/09:00am 30.1 33.1 21.2 59 6.0 NE 7 13 4 7 1010.3 1008.6 14.8
22/08:30am 28.4 32.4 21.4 66 4.7 E 2 6 1 3 1009.8 1008.1 14.8
22/08:00am 26.8 30.5 22.2 76 3.1 ESE 6 11 3 6 1009.6 1007.9 14.8
22/07:30am 25.2 28.9 22.3 84 2.0 E 6 9 3 5 1009.4 1007.7 14.8
22/07:00am 24.7 28.3 22.0 85 1.8 E 6 7 3 4 1009.3 1007.6 14.8
22/06:30am 24.2 27.7 21.9 87 1.5 ESE 6 7 3 4 1009.4 1007.7 14.8
22/06:00am 24.0 27.4 21.7 87 1.5 ENE 6 7 3 4 1009.5 1007.8 14.8
22/05:30am 24.0 27.9 21.1 84 1.9 SE 2 4 1 2 1009.6 1007.9 14.8
22/05:00am 24.0 26.4 20.9 83 2.0 S 9 17 5 9 1009.4 1007.7 14.8
22/04:30am 24.5 28.5 21.4 83 2.1 S 2 6 1 3 1009.5 1007.8 14.6
22/04:00am 24.5 28.2 21.4 83 2.1 SSW 4 7 2 4 1009.3 1007.6 14.6
22/03:30am 24.5 28.3 21.6 84 1.9 SSW 4 7 2 4 1009.2 1007.5 14.6
22/03:00am 24.4 28.3 21.9 86 1.7 SSW 4 7 2 4 1009.4 1007.7 14.6
22/02:30am 24.2 27.7 21.9 87 1.5 SW 6 11 3 6 1009.6 1007.9 14.6
22/02:00am 24.0 26.9 21.7 87 1.5 SW 9 17 5 9 1009.5 1007.8 14.6
22/01:30am 24.4 26.8 20.9 81 2.3 SW 9 17 5 9 1009.6 1007.9 14.6
22/01:00am 24.4 26.8 20.9 81 2.3 W 9 15 5 8 1009.9 1008.2 14.6
22/12:30am 24.6 27.6 21.3 82 2.2 W 7 13 4 7 1010.4 1008.7 14.6
22/12:00am 24.7 28.1 22.0 85 1.8 W 7 13 4 7 1010.7 1009.0 14.6
 
Date/Time
CST
Temp
°C
App
Temp
°C
Dew
Point
Rel
Hum
%
Delta-T
°C
Wind Press
QNH
hPa
Press
MSL
hPa
Rain
since 9 am
mm
Dir
 
Spd
km/h
Gust
km/h
Spd
kts
Gust
kts
21/11:30pm 24.6 27.3 22.1 86 1.7 WNW 11 19 6 10 1011.0 1009.4 14.6
21/11:00pm 24.6 26.0 21.9 85 1.8 WNW 17 28 9 15 1011.1 1009.5 14.6
21/10:30pm 24.9 27.1 22.6 87 1.6 NW 15 24 8 13 1010.9 1009.3 14.6
21/10:00pm 25.4 29.4 23.1 87 1.6 NW 7 13 4 7 1010.1 1008.4 14.6
21/09:30pm 25.6 28.8 23.1 86 1.7 W 11 19 6 10 1009.5 1007.8 14.6
21/09:00pm 26.0 27.7 21.7 77 2.9 S 15 24 8 13 1008.5 1006.9 5.6
21/08:30pm 30.8 35.1 21.9 59 6.1 W 2 6 1 3 1008.1 1006.5 0.0
21/08:00pm 30.6 33.7 21.4 58 6.2 SSE 7 15 4 8 1006.7 1005.1 0.0
21/07:30pm 31.1 35.2 21.6 57 6.5 SSE 2 6 1 3 1006.6 1005.0 0.0
21/07:00pm 31.4 35.0 21.3 55 6.8 ESE 4 7 2 4 1006.1 1004.4 0.0
21/06:30pm 32.4 35.6 21.3 52 7.6 SE 6 9 3 5 1006.3 1004.6 0.0
21/06:00pm 32.8 35.9 21.0 50 8.0 SSE 6 13 3 7 1006.0 1004.3 0.0
21/05:30pm 33.1 36.3 21.6 51 7.9 SSE 7 15 4 8 1005.4 1003.7 0.0
21/05:00pm 32.5 35.0 21.0 50 7.8 SE 9 17 5 9 1005.2 1003.5 0.0
21/04:30pm 32.9 34.5 20.8 49 8.2 ESE 13 20 7 11 1005.1 1003.4 0.0
21/04:00pm 33.7 35.9 20.5 46 8.9 ESE 9 17 5 9 1004.5 1002.8 0.0
21/03:30pm 34.0 36.7 20.7 45 9.0 SE 7 13 4 7 1004.9 1003.2 0.0
21/03:00pm 35.6 37.4 18.2 35 11.5 SE 6 19 3 10 1005.1 1003.4 0.0
21/02:30pm 37.4 38.5 17.9 31 12.9 NNW 9 20 5 11 1005.6 1003.9 0.0
21/02:00pm 38.0 38.9 18.4 31 13.0 NW 11 20 6 11 1006.4 1004.7 0.0
21/01:30pm 37.7 38.9 19.1 33 12.5 WNW 11 22 6 12 1007.2 1005.6 0.0
21/01:00pm 37.0 37.9 17.6 32 12.7 N 9 15 5 8 1008.0 1006.4 0.0
21/12:30pm 36.8 38.3 18.8 34 12.0 N 9 19 5 10 1008.9 1007.2 0.0
21/12:00pm 35.2 36.8 19.1 38 10.7 N 9 19 5 10 1009.3 1007.6 0.0
21/11:30am 35.0 36.9 19.8 41 10.2 NNW 9 19 5 10 1009.7 1008.0 0.0
21/11:00am 34.2 36.3 20.9 45 9.0 N 11 19 6 10 1010.0 1008.3 0.0
21/10:30am 33.1 34.6 20.6 47 8.4 NNW 13 20 7 11 1010.2 1008.5 0.0
21/10:00am 32.6 34.1 20.5 49 8.1 N 13 19 7 10 1010.4 1008.7 0.0
21/09:30am 31.5 33.7 20.4 51 7.4 N 9 17 5 9 1010.4 1008.7 0.0
21/09:00am 30.9 32.9 20.8 55 6.8 N 11 19 6 10 1010.3 1008.6 2.4
21/08:30am 29.6 31.9 20.7 58 6.0 NNE 9 13 5 7 1010.1 1008.4 2.4
21/08:00am 28.7 32.6 21.2 64 5.0 NNE 2 4 1 2 1009.9 1008.2 2.4
21/07:30am 27.5 31.0 21.1 68 4.3 NNW 4 6 2 3 1009.8 1008.1 2.4
21/07:00am 26.4 30.3 21.8 76 3.1 NE 4 6 2 3 1009.3 1007.6 2.4
21/06:30am 25.4 30.4 22.5 84 2.0 CALM 0 4 0 2 1009.2 1007.5 2.4
21/06:00am 25.2 29.3 22.3 84 2.0 NNE 4 6 2 3 1008.8 1007.1 2.4
21/05:30am 25.4 29.6 22.5 84 2.0 N 4 6 2 3 1008.2 1006.6 2.4
21/05:00am 25.4 29.7 22.7 85 1.8 NE 4 4 2 2 1008.1 1006.5 2.4
21/04:30am 25.6 30.8 22.9 85 1.8 CALM 0 0 0 0 1007.9 1006.3 2.4
21/04:00am 25.7 30.8 22.6 83 2.1 CALM 0 0 0 0 1007.7 1006.1 2.4
21/03:30am 26.0 30.4 22.1 79 2.6 ENE 2 4 1 2 1007.6 1006.0 2.4
21/03:00am 26.8 31.4 21.8 74 3.4 CALM 0 0 0 0 1007.9 1006.3 2.4
21/02:30am 27.4 30.5 21.4 70 4.0 N 7 11 4 6 1007.8 1006.2 2.4
21/02:00am 27.9 30.9 21.9 70 4.1 N 9 13 5 7 1008.1 1006.5 2.4
21/01:30am 27.5 31.8 22.7 75 3.3 N 4 6 2 3 1008.4 1006.8 2.4
21/01:00am 27.7 32.2 22.9 75 3.3 NNW 4 6 2 3 1008.5 1006.9 2.4
21/12:30am 27.9 32.3 23.5 77 3.0 N 6 9 3 5 1009.0 1007.3 2.4
21/12:00am 28.0 32.3 24.2 80 2.7 NNE 9 20 5 11 1009.1 1007.4 2.4
 
Date/Time
CST
Temp
°C
App
Temp
°C
Dew
Point
Rel
Hum
%
Delta-T
°C
Wind Press
QNH
hPa
Press
MSL
hPa
Rain
since 9 am
mm
Dir
 
Spd
km/h
Gust
km/h
Spd
kts
Gust
kts
20/11:30pm 27.9 34.3 24.9 84 2.1 CALM 0 0 0 0 1009.2 1007.5 2.4
20/11:00pm 27.7 33.6 24.7 84 2.1 N 2 4 1 2 1009.3 1007.6 2.4
20/10:30pm 27.7 33.5 24.5 83 2.2 W 2 6 1 3 1009.1 1007.4 2.4
20/10:00pm 27.9 33.9 24.3 81 2.5 CALM 0 0 0 0 1008.5 1006.9 2.4
20/09:30pm 28.0 34.5 25.0 84 2.1 CALM 0 0 0 0 1007.9 1006.3 2.4
20/09:00pm 28.2 34.8 25.2 84 2.1 CALM 0 0 0 0 1007.7 1006.1 2.4
20/08:30pm 28.6 35.3 25.4 83 2.3 CALM 0 0 0 0 1007.5 1005.9 2.4
20/08:00pm 28.8 35.3 25.0 80 2.7 CALM 0 0 0 0 1007.7 1006.1 2.4
20/07:30pm 29.2 35.3 24.5 76 3.3 CALM 0 0 0 0 1007.5 1005.9 2.4
20/07:00pm 29.8 35.6 24.0 71 4.1 CALM 0 0 0 0 1006.8 1005.2 2.4
20/06:30pm 30.2 35.5 23.1 65 4.9 CALM 0 0 0 0 1006.5 1004.9 2.4
20/06:00pm 29.4 33.9 22.9 68 4.5 N 4 6 2 3 1006.2 1004.5 2.4
20/05:30pm 28.5 33.3 24.1 77 3.1 NE 6 11 3 6 1006.2 1004.5 2.4
20/05:00pm 28.5 33.9 25.1 82 2.4 SSE 6 9 3 5 1005.8 1004.1 2.4
20/04:30pm 27.5 27.2 21.1 68 4.3 ENE 24 35 13 19 1006.3 1004.6 1.4
20/04:09pm 29.3 27.4 19.3 55 6.6 NE 28 48 15 26 1006.7 1005.1 0.0
20/04:00pm 32.7 31.7 18.8 43 9.1 N 22 44 12 24 1006.6 1005.0 0.0
20/03:30pm 36.7 39.1 19.6 36 11.5 W 6 15 3 8 1005.9 1004.2 0.0
20/03:00pm 36.4 38.9 20.2 38 11.0 E 7 13 4 7 1006.6 1005.0 0.0
20/02:30pm 34.8 38.1 21.5 46 9.1 SE 6 9 3 5 1007.2 1005.6 0.0

Other Formats:

Comma delimited format used in spreadsheet applications
http://www.bom.gov.au/fwo/IDD60801/IDD60801.94234.axf

JavaScript Object Notation format (JSON) in row-major order
http://www.bom.gov.au/fwo/IDD60801/IDD60801.94234.json